aviador You're here:

KBGM Decoded Metar

BINGHAMTON in NY, USA
Report Time2018-02-19 11:53:00
UTC Time2018-02-19 12:04:03
Flight Rules vfr VFR
Wind180° at 10 Gusting to 19 kt
W.Decomp.*RWY 16: 8.5 kt HW 5.3 kt RCW
RWY 28: 0.3 kt HW 10 kt LCW
W.Rank180° ranks 12
Current wind is above 180° avg. (6.9)
Visibility9999 m
Phenomena:N/A
Clouds:N/A
Expected CloudBase > 2,000 ft AGL from Temp-Dew spread
CeilingNone
Temp-1°C (ISA -13)
Dew Point-6°C (69% RH)
AAT-7.3°C
QNH1025 hPa
Density Alt-302 ft
Elevation1,608 ft
Report Wrong Elevation
Raw Report
METAR KBGM 191153Z 18010G19KT 10SM CLR M01/M06 A3028 RMK AO2 SLP273
T10111056 11011 21039 58003=

Extra information for KBGM:More info

Metar Taf Metar & Taf Last 4 Metars F.Rules Stats Wind Profile Meteogram Temp Stats Airport Information Weather charts Add Link Nearby VenuesMetar ALERT Operation Metar Decoded Social comments

AIRNAV info for KBGM